Time;durP1;ratioP1;P1;durP2;ratioP2;P2;SDS_P1;SDS_P2;PMS_P1;PMS_P2;Temp;Humidity;BMP_temperature;BMP_pressure;BME280_temperature;BME280_humidity;BME280_pressure;Samples;Min_cycle;Max_cycle;Signal;HPM_P1;HPM_P2
2023/11/26 00:00:21;;;;;;;0.10;0.00;;;;;;;2.70;100.00;99896.56;4991182;28;20409;-78
2023/11/26 00:02:47;;;;;;;0.22;0.10;;;;;;;2.35;100.00;99841.31;4973462;28;20120;-78
2023/11/26 00:05:12;;;;;;;0.73;0.25;;;;;;;2.66;100.00;99913.28;4990712;28;20244;-80
2023/11/26 00:07:38;;;;;;;2.47;0.70;;;;;;;3.12;100.00;100009.63;4991189;28;20030;-76
2023/11/26 00:10:04;;;;;;;1.25;0.75;;;;;;;2.89;100.00;99979.47;4990489;28;20034;-76
2023/11/26 00:12:29;;;;;;;2.22;0.40;;;;;;;2.36;100.00;99938.28;4990569;28;20030;-73
2023/11/26 00:14:55;;;;;;;0.55;0.40;;;;;;;2.49;100.00;99950.03;4990367;28;20551;-78
2023/11/26 00:17:20;;;;;;;1.55;0.22;;;;;;;2.54;100.00;100001.06;4990848;28;20026;-75
2023/11/26 00:19:47;;;;;;;0.30;0.15;;;;;;;2.88;100.00;100062.25;4973613;28;20034;-78
2023/11/26 00:22:12;;;;;;;0.15;0.15;;;;;;;2.40;100.00;99980.09;4990188;28;20424;-77
2023/11/26 00:24:38;;;;;;;0.43;0.10;;;;;;;2.39;100.00;99971.75;4989040;28;20027;-78
2023/11/26 00:27:04;;;;;;;0.25;0.10;;;;;;;2.65;100.00;100029.56;4990164;28;20030;-79
2023/11/26 00:29:29;;;;;;;0.20;0.10;;;;;;;2.72;100.00;100048.81;4989116;28;20046;-79
2023/11/26 00:31:54;;;;;;;0.38;0.10;;;;;;;2.41;100.00;99965.06;4990172;28;20034;-77
2023/11/26 00:34:21;;;;;;;0.90;0.00;;;;;;;2.55;100.00;100002.75;4989953;28;20034;-77
2023/11/26 00:36:47;;;;;;;1.60;0.80;;;;;;;2.18;100.00;99980.84;4972792;28;20034;-79
2023/11/26 00:39:12;;;;;;;2.55;0.70;;;;;;;2.21;100.00;99979.19;4989876;28;20030;-81
2023/11/26 00:41:38;;;;;;;0.25;0.10;;;;;;;2.62;100.00;99985.22;4989977;28;20089;-81
2023/11/26 00:44:04;;;;;;;0.00;0.00;;;;;;;2.25;100.00;99898.13;4988668;28;20034;-83
2023/11/26 00:46:29;;;;;;;0.30;0.08;;;;;;;2.63;100.00;99948.44;4989671;28;20113;-80
2023/11/26 00:48:55;;;;;;;0.20;0.00;;;;;;;2.41;100.00;99959.22;4990011;28;20109;-82
2023/11/26 00:51:21;;;;;;;1.45;0.60;;;;;;;2.41;100.00;99981.78;4989499;28;20104;-82
2023/11/26 00:53:49;;;;;;;0.32;0.10;;;;;;;3.05;100.00;100106.69;4989917;28;20080;-82
2023/11/26 00:56:14;;;;;;;0.10;0.10;;;;;;;2.93;100.00;100104.13;4972861;28;20031;-78
2023/11/26 00:58:40;;;;;;;0.30;0.20;;;;;;;2.68;100.00;100059.66;4972109;28;20544;-82
2023/11/26 01:01:07;;;;;;;0.52;0.10;;;;;;;1.88;100.00;99920.50;4990010;28;20027;-81
2023/11/26 01:03:32;;;;;;;0.25;0.10;;;;;;;2.42;100.00;100008.53;4972664;28;20034;-80
2023/11/26 01:05:58;;;;;;;0.00;0.00;;;;;;;2.25;100.00;99938.25;4989524;28;20503;-80
2023/11/26 01:08:24;;;;;;;0.30;0.20;;;;;;;2.85;100.00;100053.06;4972602;28;20489;-77
2023/11/26 01:10:50;;;;;;;0.10;0.00;;;;;;;2.27;100.00;99951.63;4989818;28;20057;-81
2023/11/26 01:13:17;;;;;;;0.00;0.00;;;;;;;2.13;100.00;99945.72;4990042;28;20030;-82
2023/11/26 01:15:42;;;;;;;1.55;0.35;;;;;;;2.12;100.00;99916.44;4989442;28;20030;-79
2023/11/26 01:18:08;;;;;;;0.50;0.10;;;;;;;2.33;100.00;99944.13;4972108;28;20562;-80
2023/11/26 01:20:33;;;;;;;1.20;0.10;;;;;;;2.73;100.00;100027.06;4972469;28;20046;-83
2023/11/26 01:22:59;;;;;;;1.17;0.00;;;;;;;2.43;100.00;100000.19;4988783;28;20038;-85
2023/11/26 01:25:24;;;;;;;0.20;0.10;;;;;;;2.36;100.00;99980.91;4989224;28;20034;-83
2023/11/26 01:27:49;;;;;;;0.25;0.10;;;;;;;1.97;100.00;99916.38;4971731;28;20034;-81
2023/11/26 01:30:15;;;;;;;0.20;0.10;;;;;;;2.07;100.00;99940.66;4988234;28;20058;-74
2023/11/26 01:32:42;;;;;;;0.00;0.00;;;;;;;2.46;100.00;100007.72;4989175;28;20037;-78
2023/11/26 01:35:08;;;;;;;0.10;0.00;;;;;;;2.25;100.00;99978.38;4972272;28;20033;-86
2023/11/26 01:37:34;;;;;;;0.17;0.17;;;;;;;2.55;100.00;100048.75;4972502;28;20624;-83
2023/11/26 01:40:00;;;;;;;0.45;0.20;;;;;;;1.88;100.00;99930.53;4989448;28;20049;-86
2023/11/26 01:42:25;;;;;;;0.38;0.10;;;;;;;2.32;100.00;99984.22;4970846;28;20485;-83
2023/11/26 01:44:51;;;;;;;1.15;0.10;;;;;;;2.17;100.00;99995.03;4989188;28;20061;-89
2023/11/26 01:47:17;;;;;;;1.17;0.03;;;;;;;2.21;100.00;100001.75;4988960;28;20084;-87
2023/11/26 01:49:43;;;;;;;0.20;0.00;;;;;;;2.21;100.00;99985.84;4971567;28;20026;-80
2023/11/26 01:52:11;;;;;;;0.00;0.00;;;;;;;2.30;100.00;99985.88;4988809;28;20053;-81
2023/11/26 01:54:38;;;;;;;0.20;0.10;;;;;;;2.76;100.00;100053.03;4989244;28;20050;-81
2023/11/26 01:57:05;;;;;;;0.17;0.10;;;;;;;2.82;100.00;100045.50;4971680;28;20057;-77
2023/11/26 01:59:31;;;;;;;0.30;0.10;;;;;;;2.36;100.00;99978.41;4989873;28;20062;-76
2023/11/26 02:01:57;;;;;;;0.60;0.10;;;;;;;2.93;100.00;100038.84;4989430;28;20041;-83
2023/11/26 02:04:22;;;;;;;0.05;0.05;;;;;;;2.46;100.00;99982.63;4988290;28;20030;-85
2023/11/26 02:06:50;;;;;;;0.20;0.10;;;;;;;3.00;100.00;100060.66;4989588;28;20030;-84
2023/11/26 02:09:18;;;;;;;0.05;0.05;;;;;;;3.05;100.00;100073.22;4974908;28;20038;-86
2023/11/26 02:11:45;;;;;;;0.05;0.00;;;;;;;2.98;100.00;100039.72;4990868;28;20477;-80
2023/11/26 02:14:10;;;;;;;0.17;0.00;;;;;;;2.67;100.00;99980.22;4975665;28;20030;-82
2023/11/26 02:16:36;;;;;;;1.38;0.10;;;;;;;2.95;100.00;100013.78;4992297;28;20034;-85
2023/11/26 02:19:08;;;;;;;0.08;0.00;;;;;;;2.96;100.00;100038.03;4992537;28;20050;-84
2023/11/26 02:21:33;;;;;;;0.10;0.00;;;;;;;2.90;100.00;100026.31;4991947;28;20038;-83
2023/11/26 02:23:59;;;;;;;0.10;0.10;;;;;;;2.85;100.00;99997.00;4974700;28;20042;-83
2023/11/26 02:26:24;;;;;;;0.00;0.00;;;;;;;3.14;100.00;100054.00;4992303;28;20034;-85
2023/11/26 02:28:50;;;;;;;0.00;0.00;;;;;;;3.33;100.00;100073.31;4993973;28;20030;-83
2023/11/26 02:31:15;;;;;;;0.40;0.10;;;;;;;3.37;100.00;100069.13;4994037;28;20062;-83
2023/11/26 02:33:41;;;;;;;0.20;0.00;;;;;;;3.26;100.00;100061.56;4992326;28;20026;-79
2023/11/26 02:36:07;;;;;;;2.05;0.00;;;;;;;3.36;100.00;100053.22;4992867;28;20038;-83
2023/11/26 02:38:33;;;;;;;0.03;0.00;;;;;;;2.45;100.00;99890.66;4992508;28;20053;-82
2023/11/26 02:40:58;;;;;;;0.88;0.10;;;;;;;3.46;100.00;100052.41;4991903;28;20126;-81
2023/11/26 02:43:24;;;;;;;0.30;0.00;;;;;;;3.34;100.00;99999.63;4975189;28;20041;-75
2023/11/26 02:45:56;;;;;;;0.05;0.00;;;;;;;3.23;100.00;99995.41;4989696;28;20100;-80
2023/11/26 02:48:24;;;;;;;0.10;0.03;;;;;;;2.97;100.00;99937.63;4990953;28;20037;-80
2023/11/26 02:50:50;;;;;;;0.10;0.00;;;;;;;2.99;100.00;99922.59;4991967;28;20038;-80
2023/11/26 02:53:16;;;;;;;0.00;0.00;;;;;;;3.51;100.00;99997.97;4991644;28;20037;-76
2023/11/26 02:55:41;;;;;;;0.32;0.10;;;;;;;2.91;100.00;99916.72;4991479;28;20038;-79
2023/11/26 02:58:09;;;;;;;1.00;0.20;;;;;;;2.98;100.00;99913.34;4992040;28;20037;-77
2023/11/26 03:00:36;;;;;;;0.50;0.20;;;;;;;3.32;100.00;99977.84;4972803;28;20030;-78
2023/11/26 03:03:03;;;;;;;1.13;0.10;;;;;;;2.79;100.00;99876.53;4991892;28;20556;-78
2023/11/26 03:05:29;;;;;;;0.77;0.50;;;;;;;3.32;100.00;99955.25;4991843;28;20030;-81
2023/11/26 03:08:08;;;;;;;0.25;0.20;;;;;;;3.24;100.00;99940.19;4991362;28;20737;-79
2023/11/26 03:13:21;;;;;;;0.20;0.20;;;;;;;3.38;100.00;99925.97;4990852;28;20053;-79
2023/11/26 03:15:50;;;;;;;0.65;0.10;;;;;;;3.35;100.00;99925.94;4991617;28;20094;-77
2023/11/26 03:18:17;;;;;;;0.20;0.15;;;;;;;3.42;100.00;99935.16;4972747;28;20058;-78
2023/11/26 03:20:43;;;;;;;0.60;0.20;;;;;;;2.94;100.00;99847.25;4974220;28;20034;-78
2023/11/26 03:23:09;;;;;;;0.25;0.10;;;;;;;3.36;100.00;99920.09;4974031;28;20077;-79
2023/11/26 03:25:36;;;;;;;0.47;0.20;;;;;;;2.92;100.00;99851.44;4991221;28;20058;-79
2023/11/26 03:28:04;;;;;;;1.50;0.17;;;;;;;3.10;100.00;99881.56;4991009;28;20061;-80
2023/11/26 03:30:31;;;;;;;0.55;0.10;;;;;;;3.43;100.00;99924.25;4987723;28;20085;-82
2023/11/26 03:33:00;;;;;;;0.25;0.20;;;;;;;3.45;100.00;99921.75;4990929;28;20042;-81
2023/11/26 03:35:26;;;;;;;0.40;0.10;;;;;;;3.61;100.00;99932.63;4988137;28;20023;-80
2023/11/26 03:37:54;;;;;;;0.57;0.30;;;;;;;3.19;100.00;99843.91;4991026;28;20034;-79
2023/11/26 03:40:20;;;;;;;0.95;0.10;;;;;;;3.56;100.00;99872.34;4974187;28;20034;-80
2023/11/26 03:42:49;;;;;;;0.60;0.10;;;;;;;3.27;100.00;99824.63;4990484;28;20023;-79
2023/11/26 03:45:15;;;;;;;0.50;0.10;;;;;;;3.52;100.00;99870.66;4991245;28;20034;-81
2023/11/26 03:47:41;;;;;;;0.00;0.00;;;;;;;2.91;100.00;99779.47;4990366;28;20081;-80
2023/11/26 03:50:09;;;;;;;0.20;0.10;;;;;;;3.43;100.00;99833.81;4990320;28;20061;-83
2023/11/26 03:52:35;;;;;;;3.03;0.10;;;;;;;2.90;100.00;99792.88;4989393;28;20126;-82
2023/11/26 03:55:01;;;;;;;0.98;0.00;;;;;;;3.70;100.00;99868.13;4990225;28;20105;-81
2023/11/26 03:57:27;;;;;;;0.20;0.10;;;;;;;3.02;100.00;99838.06;4989173;28;20038;-74
2023/11/26 03:59:52;;;;;;;0.80;0.00;;;;;;;3.22;100.00;99856.47;4972520;28;20026;-76
2023/11/26 04:02:18;;;;;;;0.80;0.10;;;;;;;2.79;100.00;99783.69;4972726;28;20117;-77
2023/11/26 04:04:45;;;;;;;1.48;0.00;;;;;;;2.69;100.00;99770.31;4972644;28;20037;-75
2023/11/26 04:07:11;;;;;;;0.10;0.10;;;;;;;3.15;100.00;99866.53;4988941;28;20022;-83
2023/11/26 04:09:37;;;;;;;0.60;0.05;;;;;;;3.30;100.00;99864.84;4972469;28;20034;-82
2023/11/26 04:12:03;;;;;;;0.22;0.10;;;;;;;3.29;100.00;99867.31;4972761;28;20057;-82
2023/11/26 04:14:31;;;;;;;0.45;0.10;;;;;;;2.93;100.00;99834.72;4985635;28;20034;-76
2023/11/26 04:16:57;;;;;;;0.77;0.10;;;;;;;3.34;100.00;99874.03;4990102;28;20038;-80
2023/11/26 04:19:22;;;;;;;0.25;0.20;;;;;;;2.73;100.00;99781.16;4989308;28;20043;-76
2023/11/26 04:21:48;;;;;;;0.70;0.10;;;;;;;3.26;100.00;99873.22;4972437;28;20034;-78
2023/11/26 04:24:15;;;;;;;0.38;0.10;;;;;;;3.37;100.00;99889.09;4973756;28;20030;-79
2023/11/26 04:26:41;;;;;;;0.85;0.00;;;;;;;3.42;100.00;99881.56;4988509;28;20022;-76
2023/11/26 04:29:07;;;;;;;0.00;0.00;;;;;;;3.20;100.00;99819.63;4989315;28;20053;-83
2023/11/26 04:31:33;;;;;;;0.10;0.10;;;;;;;3.49;100.00;99853.91;4971670;28;20038;-80
2023/11/26 04:34:01;;;;;;;0.70;0.30;;;;;;;3.47;100.00;99865.63;4988364;28;20038;-77
2023/11/26 04:36:28;;;;;;;1.63;0.10;;;;;;;2.98;100.00;99802.91;4988699;28;20109;-77
2023/11/26 04:38:54;;;;;;;0.68;0.20;;;;;;;3.45;100.00;99871.50;4989138;28;20058;-78
2023/11/26 04:41:21;;;;;;;0.80;0.30;;;;;;;3.55;100.00;99865.63;4988226;28;20101;-77
2023/11/26 04:43:47;;;;;;;0.73;0.20;;;;;;;3.49;100.00;99846.38;4988868;28;20026;-79
2023/11/26 04:46:16;;;;;;;0.77;0.20;;;;;;;3.03;100.00;99826.34;4988733;28;20030;-77
2023/11/26 04:48:43;;;;;;;0.38;0.28;;;;;;;3.55;100.00;99873.16;4989531;28;20045;-78
2023/11/26 04:51:09;;;;;;;0.32;0.20;;;;;;;3.50;100.00;99883.25;4988516;28;20034;-75
2023/11/26 04:53:36;;;;;;;0.40;0.10;;;;;;;3.10;100.00;99848.94;4989118;28;20034;-77
2023/11/26 04:56:01;;;;;;;1.27;0.25;;;;;;;2.57;100.00;99758.59;4989179;28;20026;-74
2023/11/26 04:58:27;;;;;;;0.20;0.10;;;;;;;3.24;100.00;99894.97;4988690;28;20031;-77
2023/11/26 05:00:52;;;;;;;0.30;0.20;;;;;;;3.02;100.00;99845.59;4970316;28;20026;-78
2023/11/26 05:03:22;;;;;;;0.38;0.20;;;;;;;3.18;100.00;99854.78;4987995;28;20037;-81
2023/11/26 05:05:48;;;;;;;2.03;0.20;;;;;;;2.83;100.00;99816.31;4971526;28;20034;-76
2023/11/26 05:08:14;;;;;;;0.65;0.17;;;;;;;2.91;100.00;99857.28;4989315;28;20060;-79
2023/11/26 05:10:39;;;;;;;1.83;0.40;;;;;;;3.30;100.00;99936.81;4989034;28;20479;-78
2023/11/26 05:13:05;;;;;;;0.40;0.20;;;;;;;3.43;100.00;99933.47;4988941;28;20104;-76
2023/11/26 05:15:30;;;;;;;0.55;0.30;;;;;;;2.97;100.00;99859.78;4971555;28;20041;-77
2023/11/26 05:17:56;;;;;;;1.30;0.50;;;;;;;3.47;100.00;99941.00;4988477;28;20046;-77
2023/11/26 05:20:22;;;;;;;5.00;0.70;;;;;;;3.48;100.00;99912.56;4972177;28;20181;-81
2023/11/26 05:22:48;;;;;;;0.90;0.40;;;;;;;3.44;100.00;99938.53;4987788;28;20135;-79
2023/11/26 05:25:14;;;;;;;2.05;0.60;;;;;;;3.47;100.00;99946.03;4986713;28;20129;-76
2023/11/26 05:27:40;;;;;;;0.90;0.38;;;;;;;3.34;100.00;99946.88;4986947;28;20045;-76
2023/11/26 05:30:08;;;;;;;1.92;0.50;;;;;;;3.34;100.00;99936.84;4978068;28;20046;-79
2023/11/26 05:32:34;;;;;;;0.82;0.50;;;;;;;2.86;100.00;99876.53;4986876;28;20085;-78
2023/11/26 05:35:08;;;;;;;0.85;0.40;;;;;;;3.54;100.00;99992.94;4988612;28;20111;-79
2023/11/26 05:37:34;;;;;;;0.57;0.40;;;;;;;3.64;100.00;99990.44;4971686;28;20485;-77
2023/11/26 05:39:59;;;;;;;3.72;1.42;;;;;;;3.73;100.00;100005.50;4988142;28;20097;-77
2023/11/26 05:42:25;;;;;;;2.42;1.40;;;;;;;3.36;100.00;99975.34;4987258;28;20108;-77
2023/11/26 05:44:50;;;;;;;2.20;1.15;;;;;;;3.77;100.00;100044.88;4971053;28;20513;-80
2023/11/26 05:47:16;;;;;;;1.70;0.95;;;;;;;3.60;100.00;100034.84;4971280;28;20424;-78
2023/11/26 05:49:41;;;;;;;5.43;3.35;;;;;;;3.70;100.00;100048.25;4988418;28;20045;-78
2023/11/26 05:52:07;;;;;;;2.03;1.10;;;;;;;3.27;100.00;99980.34;4974422;28;20030;-78
2023/11/26 05:54:33;;;;;;;2.38;1.33;;;;;;;3.01;100.00;99981.97;4987835;28;20037;-79
2023/11/26 05:57:00;;;;;;;4.18;2.10;;;;;;;3.03;100.00;99982.81;4971542;28;20030;-78
2023/11/26 05:59:25;;;;;;;1.95;1.27;;;;;;;3.48;100.00;100101.00;4970140;28;20416;-78
2023/11/26 06:01:50;;;;;;;2.25;1.30;;;;;;;3.45;100.00;100073.34;4987382;28;20034;-77
2023/11/26 06:04:16;;;;;;;2.63;1.60;;;;;;;3.43;100.00;100080.03;4988301;28;20041;-78
2023/11/26 06:06:42;;;;;;;3.42;2.20;;;;;;;3.48;100.00;100105.16;4971752;28;20483;-79
2023/11/26 06:09:08;;;;;;;1.90;1.08;;;;;;;3.48;100.00;100110.19;4987291;28;20034;-79
2023/11/26 06:11:34;;;;;;;7.07;3.80;;;;;;;2.97;100.00;100050.59;4988424;28;20026;-77
2023/11/26 06:14:00;;;;;;;3.33;2.42;;;;;;;3.38;100.00;100121.91;4988270;28;20057;-76
2023/11/26 06:16:26;;;;;;;7.93;3.78;;;;;;;3.11;100.00;100060.69;4971425;28;20031;-77
2023/11/26 06:18:51;;;;;;;5.57;3.80;;;;;;;3.42;100.00;100113.53;4971490;28;20054;-79
2023/11/26 06:21:18;;;;;;;8.50;4.68;;;;;;;3.35;100.00;100152.00;4970478;28;20026;-79
2023/11/26 06:23:44;;;;;;;17.00;10.07;;;;;;;3.07;100.00;100094.97;4985830;28;20110;-78
2023/11/26 06:26:15;;;;;;;18.33;10.18;;;;;;;3.04;100.00;100097.50;4987687;28;20034;-78
2023/11/26 06:28:40;;;;;;;8.88;5.90;;;;;;;3.35;100.00;100149.50;4969424;28;20041;-87
2023/11/26 06:31:06;;;;;;;9.27;6.20;;;;;;;3.30;100.00;100133.59;4988108;28;20035;-79
2023/11/26 06:33:31;;;;;;;18.92;11.05;;;;;;;3.20;100.00;100136.06;4987386;28;20041;-77
2023/11/26 06:35:57;;;;;;;14.45;9.70;;;;;;;3.48;100.00;100196.47;4986870;28;20041;-79
2023/11/26 06:38:22;;;;;;;15.55;10.02;;;;;;;3.10;100.00;100130.16;4986271;28;20030;-75
2023/11/26 06:40:48;;;;;;;10.88;9.32;;;;;;;3.53;100.00;100197.31;4988479;28;20041;-76
2023/11/26 06:43:13;;;;;;;10.20;7.63;;;;;;;3.15;100.00;100142.75;4969552;28;20027;-79
2023/11/26 06:45:39;;;;;;;9.98;7.07;;;;;;;3.17;100.00;100169.50;4969554;28;20037;-78
2023/11/26 06:48:04;;;;;;;7.28;4.80;;;;;;;2.87;100.00;100086.56;4987181;28;20100;-78
2023/11/26 06:50:35;;;;;;;5.85;3.30;;;;;;;3.21;100.00;100151.13;4986831;28;20033;-79
2023/11/26 06:53:00;;;;;;;3.72;2.50;;;;;;;3.21;100.00;100170.41;4970766;28;20034;-77
2023/11/26 06:55:25;;;;;;;3.72;2.60;;;;;;;3.79;100.00;100244.31;4974204;28;20030;-77
2023/11/26 06:57:51;;;;;;;3.15;2.28;;;;;;;3.87;100.00;100245.19;4991906;28;20058;-78
2023/11/26 07:00:18;;;;;;;1.95;1.35;;;;;;;3.88;100.00;100254.41;4991122;28;21932;-80
2023/11/26 07:02:44;;;;;;;2.83;1.65;;;;;;;3.83;100.00;100256.06;4974051;28;20026;-80
2023/11/26 07:05:09;;;;;;;5.15;2.55;;;;;;;3.89;100.00;100249.38;4991295;28;20034;-79
2023/11/26 07:07:35;;;;;;;7.07;3.80;;;;;;;4.02;100.00;100257.81;4973742;28;20116;-76
2023/11/26 07:10:00;;;;;;;7.18;3.78;;;;;;;4.07;100.00;100286.31;4975841;28;20053;-76
2023/11/26 07:12:29;;;;;;;7.50;3.78;;;;;;;3.89;100.00;100271.16;4982202;28;20069;-80
2023/11/26 07:14:54;;;;;;;9.88;5.78;;;;;;;3.48;100.00;100198.13;4991137;28;20114;-84
2023/11/26 07:17:22;;;;;;;8.10;3.80;;;;;;;3.81;100.00;100222.53;4973838;28;20117;-84
2023/11/26 07:19:47;;;;;;;3.90;2.75;;;;;;;3.66;100.00;100228.38;4973968;28;20030;-86
2023/11/26 07:22:13;;;;;;;3.17;1.90;;;;;;;3.71;100.00;100245.97;4971930;28;20089;-78
2023/11/26 07:24:42;;;;;;;4.80;2.70;;;;;;;4.02;100.00;100308.94;4990063;28;20492;-84
2023/11/26 07:27:07;;;;;;;20.08;10.68;;;;;;;4.13;100.00;100322.41;4991114;28;20045;-82
2023/11/26 07:29:34;;;;;;;21.27;15.38;;;;;;;4.09;100.00;100337.47;4990755;28;20030;-77
2023/11/26 07:31:59;;;;;;;8.13;6.57;;;;;;;3.85;100.00;100318.09;4973899;28;20121;-79
2023/11/26 07:34:26;;;;;;;8.65;6.53;;;;;;;4.01;100.00;100349.16;4989848;28;20597;-82
2023/11/26 07:36:51;;;;;;;6.80;4.65;;;;;;;3.70;100.00;100305.47;4992272;28;20054;-79
2023/11/26 07:39:17;;;;;;;12.68;9.05;;;;;;;4.83;100.00;100388.84;4992648;28;20054;-77
2023/11/26 07:41:46;;;;;;;9.32;6.57;;;;;;;4.04;100.00;100362.59;4991398;28;20034;-77
2023/11/26 07:44:13;;;;;;;10.13;7.80;;;;;;;4.03;100.00;100372.66;4974199;28;20125;-75
2023/11/26 07:46:40;;;;;;;17.48;13.00;;;;;;;4.15;100.00;100390.31;4981241;28;20034;-76
2023/11/26 07:49:06;;;;;;;8.00;5.80;;;;;;;4.11;100.00;100389.47;4972440;28;20030;-75
2023/11/26 07:51:32;;;;;;;4.93;3.83;;;;;;;4.12;100.00;100390.31;4992657;28;20029;-76
2023/11/26 07:53:57;;;;;;;7.57;5.05;;;;;;;4.20;100.00;100397.03;4992665;28;20109;-71
2023/11/26 07:56:23;;;;;;;16.27;11.88;;;;;;;4.05;100.00;100393.63;4990839;28;20540;-76
2023/11/26 07:58:49;;;;;;;11.35;6.88;;;;;;;3.76;100.00;100398.50;4992142;28;20038;-78
2023/11/26 08:01:14;;;;;;;11.88;7.40;;;;;;;4.28;100.00;100422.22;4992647;28;20026;-77
2023/11/26 08:03:40;;;;;;;6.88;4.68;;;;;;;4.20;100.00;100423.88;4972447;28;20030;-70
2023/11/26 08:06:11;;;;;;;4.35;3.50;;;;;;;4.07;100.00;100380.22;4991494;28;20031;-79
2023/11/26 08:08:37;;;;;;;7.70;5.43;;;;;;;4.22;100.00;100428.09;4991356;28;20057;-77
2023/11/26 08:11:04;;;;;;;12.63;9.52;;;;;;;3.94;100.00;100435.50;4990383;28;20050;-78
2023/11/26 08:13:32;;;;;;;12.13;9.40;;;;;;;4.04;100.00;100417.09;4992153;28;20038;-80
2023/11/26 08:15:57;;;;;;;8.63;7.53;;;;;;;3.54;100.00;100354.78;4973790;28;20501;-76
2023/11/26 08:18:24;;;;;;;6.75;5.80;;;;;;;4.11;100.00;100418.81;4989590;28;20069;-76
2023/11/26 08:20:51;;;;;;;6.13;4.85;;;;;;;3.59;100.00;100346.44;4986663;28;20053;-72
2023/11/26 08:23:17;;;;;;;7.03;5.45;;;;;;;4.17;100.00;100419.69;4990301;28;20034;-77
2023/11/26 08:25:44;;;;;;;7.18;5.80;;;;;;;4.25;100.00;100429.78;4974130;28;20033;-75
2023/11/26 08:28:10;;;;;;;9.35;6.35;;;;;;;4.29;100.00;100434.84;4990806;28;20033;-79
2023/11/26 08:30:44;;;;;;;10.00;8.13;;;;;;;4.47;100.00;100423.16;4988455;28;20149;-76
2023/11/26 08:33:14;;;;;;;15.25;12.57;;;;;;;4.51;100.00;100429.88;4991639;28;20030;-79
2023/11/26 08:35:41;;;;;;;23.52;18.30;;;;;;;4.53;100.00;100441.66;4987672;28;20045;-80
2023/11/26 08:38:07;;;;;;;41.13;28.30;;;;;;;4.79;100.00;100482.88;4971373;28;20033;-78
2023/11/26 08:40:35;;;;;;;46.78;29.17;;;;;;;4.60;100.00;100423.19;4972232;28;20041;-75
2023/11/26 08:43:02;;;;;;;16.52;11.65;;;;;;;5.02;100.00;100501.41;4971777;28;20031;-76
2023/11/26 08:45:28;;;;;;;10.50;8.27;;;;;;;4.98;100.00;100507.28;4989937;28;20053;-73
2023/11/26 08:47:55;;;;;;;13.70;11.88;;;;;;;5.06;100.00;100499.72;4988438;28;20394;-76
2023/11/26 08:50:21;;;;;;;7.88;5.90;;;;;;;5.25;100.00;100532.53;4988344;28;20050;-80
2023/11/26 08:52:46;;;;;;;7.82;6.20;;;;;;;5.26;100.00;100503.97;4990356;28;20469;-75
2023/11/26 08:55:12;;;;;;;13.50;11.00;;;;;;;5.14;100.00;100526.63;4989134;28;20124;-76
2023/11/26 08:57:41;;;;;;;11.52;8.63;;;;;;;5.20;100.00;100535.88;4973679;28;20442;-76
2023/11/26 09:00:09;;;;;;;12.57;10.30;;;;;;;4.34;100.00;100413.03;4988395;28;20612;-75
2023/11/26 09:02:38;;;;;;;8.55;7.13;;;;;;;5.09;100.00;100535.03;4969561;28;20037;-77
2023/11/26 09:05:08;;;;;;;5.20;3.75;;;;;;;5.45;100.00;100564.53;4992167;28;20030;-78
2023/11/26 09:07:46;;;;;;;3.85;3.00;;;;;;;5.09;100.00;100548.44;4973637;28;20065;-79
2023/11/26 09:10:13;;;;;;;3.25;2.13;;;;;;;5.38;100.00;100556.09;4991908;28;20105;-78
2023/11/26 09:12:39;;;;;;;2.05;1.70;;;;;;;5.51;100.00;100559.47;4974029;28;20061;-76
2023/11/26 09:15:10;;;;;;;4.22;2.40;;;;;;;4.89;100.00;100451.81;4990717;28;20053;-77
2023/11/26 09:17:37;;;;;;;3.08;2.53;;;;;;;5.41;100.00;100503.16;4991572;28;20041;-78
2023/11/26 09:20:03;;;;;;;2.60;1.50;;;;;;;5.39;100.00;100567.03;4991622;28;20546;-78
2023/11/26 09:22:30;;;;;;;2.47;1.90;;;;;;;5.48;100.00;100572.94;4989515;28;20477;-77
2023/11/26 09:24:56;;;;;;;5.55;4.22;;;;;;;5.62;100.00;100585.56;4993572;28;20030;-78
2023/11/26 09:27:21;;;;;;;17.00;12.85;;;;;;;5.41;100.00;100571.22;4991514;28;20131;-77
2023/11/26 09:29:47;;;;;;;11.40;8.32;;;;;;;5.81;100.00;100602.38;4990798;28;20108;-75
2023/11/26 09:32:13;;;;;;;6.63;4.97;;;;;;;5.06;100.00;100512.31;4989800;28;20136;-76
2023/11/26 09:34:39;;;;;;;2.40;1.52;;;;;;;5.17;100.00;100535.84;4972634;28;20034;-76
2023/11/26 09:37:05;;;;;;;2.58;2.13;;;;;;;4.92;100.00;100516.47;4969963;28;20065;-75
2023/11/26 09:39:34;;;;;;;1.88;1.20;;;;;;;4.80;100.00;100524.84;4989837;28;20081;-76
2023/11/26 09:42:02;;;;;;;4.32;3.08;;;;;;;5.73;100.00;100606.56;4989997;28;20520;-74
2023/11/26 09:44:28;;;;;;;3.60;2.58;;;;;;;5.49;100.00;100594.75;4990290;28;20069;-75
2023/11/26 09:46:54;;;;;;;2.90;2.00;;;;;;;4.82;100.00;100492.09;4972596;28;20034;-75
2023/11/26 09:49:20;;;;;;;3.17;2.03;;;;;;;5.47;100.00;100619.13;4991658;28;20412;-74
2023/11/26 09:51:51;;;;;;;4.00;3.38;;;;;;;5.12;100.00;100547.63;4989664;28;20026;-74
2023/11/26 09:54:17;;;;;;;4.75;4.05;;;;;;;5.34;100.00;100573.72;4980188;28;20449;-75
2023/11/26 09:56:44;;;;;;;3.60;2.65;;;;;;;5.69;100.00;100618.34;4988840;28;20113;-75
2023/11/26 09:59:26;;;;;;;3.03;2.47;;;;;;;5.29;100.00;100551.00;4972607;28;20030;-75
2023/11/26 10:01:52;;;;;;;5.22;3.20;;;;;;;5.02;100.00;100513.16;4989857;28;20536;-73
2023/11/26 10:04:18;;;;;;;4.38;2.95;;;;;;;5.86;100.00;100626.00;4972944;28;20019;-75
2023/11/26 10:06:52;;;;;;;3.63;2.13;;;;;;;5.55;100.00;100620.00;4972853;28;20070;-75
2023/11/26 10:09:18;;;;;;;5.80;3.92;;;;;;;5.66;100.00;100617.50;4990375;28;20031;-77
2023/11/26 10:11:45;;;;;;;4.68;3.20;;;;;;;5.32;100.00;100577.91;4989136;28;20088;-77
2023/11/26 10:14:18;;;;;;;8.73;5.35;;;;;;;5.39;100.00;100546.84;4989504;28;20034;-77
2023/11/26 10:16:44;;;;;;;3.80;2.35;;;;;;;4.87;100.00;100523.19;4988841;28;20033;-76
2023/11/26 10:19:26;;;;;;;2.47;1.80;;;;;;;4.95;100.00;100540.00;4989619;28;20046;-76
2023/11/26 10:21:59;;;;;;;3.17;1.98;;;;;;;5.04;100.00;100539.19;4971415;28;20098;-76
2023/11/26 10:24:27;;;;;;;3.33;2.70;;;;;;;5.54;100.00;100604.88;4990061;28;20564;-76
2023/11/26 10:26:54;;;;;;;5.80;2.70;;;;;;;5.39;100.00;100594.75;4971225;28;20093;-72
2023/11/26 10:29:23;;;;;;;3.67;2.72;;;;;;;5.09;100.00;100553.47;4991644;28;20401;-80
2023/11/26 10:31:59;;;;;;;5.13;3.88;;;;;;;5.72;100.00;100638.53;4993085;28;20026;-80
2023/11/26 10:34:25;;;;;;;3.35;2.33;;;;;;;5.47;100.00;100641.81;4977279;28;20502;-79
2023/11/26 10:36:50;;;;;;;3.10;2.30;;;;;;;5.62;100.00;100626.75;4992994;28;20121;-79
2023/11/26 10:39:17;;;;;;;5.82;2.67;;;;;;;5.19;100.00;100565.28;4975637;28;20046;-77
2023/11/26 10:41:46;;;;;;;3.05;2.00;;;;;;;4.74;100.00;100502.13;4993947;28;20031;-76
2023/11/26 10:44:13;;;;;;;3.40;2.78;;;;;;;5.69;100.00;100642.72;4992917;28;20138;-76
2023/11/26 10:46:41;;;;;;;5.35;3.20;;;;;;;5.88;100.00;100615.03;4992133;28;20073;-78
2023/11/26 10:49:29;;;;;;;9.18;6.60;;;;;;;5.88;100.00;100639.44;4992423;28;20114;-81
2023/11/26 10:52:13;;;;;;;5.65;3.10;;;;;;;5.51;100.00;100645.19;4993167;28;20057;-77
2023/11/26 10:55:13;;;;;;;4.95;3.75;;;;;;;5.61;100.00;100622.53;4992493;28;20030;-75
2023/11/26 10:57:43;;;;;;;4.07;3.08;;;;;;;5.23;100.00;100569.50;4285093;28;10000931;-80
2023/11/26 11:00:15;;;;;;;4.13;3.00;;;;;;;5.23;100.00;100627.44;4970550;28;20070;-80
2023/11/26 11:02:42;;;;;;;4.25;3.17;;;;;;;5.58;100.00;100627.59;4959540;28;20043;-77
2023/11/26 11:05:09;;;;;;;5.80;3.97;;;;;;;5.56;100.00;100635.97;4961813;28;20038;-78
2023/11/26 11:07:35;;;;;;;5.90;4.07;;;;;;;5.34;100.00;100619.09;4977420;28;20054;-81
2023/11/26 11:10:21;;;;;;;5.63;4.10;;;;;;;5.16;100.00;100615.69;4961282;28;20703;-77
2023/11/26 11:12:50;;;;;;;6.93;3.50;;;;;;;5.00;100.00;100615.59;4955872;28;20057;-77
2023/11/26 11:15:17;;;;;;;5.07;3.80;;;;;;;5.09;100.00;100613.94;4971304;28;20039;-77
2023/11/26 11:17:43;;;;;;;6.35;4.80;;;;;;;4.93;100.00;100614.72;4975527;28;20054;-78
2023/11/26 11:20:10;;;;;;;8.60;5.45;;;;;;;4.55;100.00;100542.34;4979113;28;20081;-77
2023/11/26 11:22:36;;;;;;;5.35;4.03;;;;;;;4.56;100.00;100549.88;4960702;28;20504;-81
2023/11/26 11:25:13;;;;;;;6.60;3.60;;;;;;;4.98;100.00;100609.69;4975929;28;20039;-77
2023/11/26 11:27:53;;;;;;;5.18;4.00;;;;;;;4.85;100.00;100591.16;4976508;28;20034;-77